»·PEaware :: N104LA KPTV-KSNA

N104LA :: KPTV-KSNA

FLIGHT INFORMATION

Flight Status: Arrived
Operator: Privately registered:
United States
More flights under this callsign
Pilot: Bill D. (18789)
Aircraft: CESSNA 172 SKYHAWK
(C172)
More flights by this aircraft type
Origin: KPTV Porterville Mun
United States
Destination: KSNA John Wayne-Orange Co
United States
More flights between these airports :: More routes between these airports
Route: +TTE V459 DARTS V186 BAYJY V363 POXKU V8 SLI
File this flight plan on PilotEdge
Remarks: Would like gps 20R at KSNA
Altitude:
(Current/Filed)
8,000ft
Speed:
(Current/Filed)
160kts
Departed: 14-Apr-18 10:31 AM
Arrived: 14-Apr-18 11:42 AM
Distance/Time
Traveled:
153nm/1:11
Distance/Time
To Go:
Arrived

Flight Plot

Page will automatically refresh every two minutes.

Flight plan parsing failed; only flown route is shown


Map Options




Map Legend


Flown Route
Filed Route
Departure Airport
Arrival Airport
Navaid (VOR, NDB)
Fix

Horizontal Profiles

Position Reports

Time Latitude Longitude Heading Altitude Ground
Speed
14-Apr-18 10:20 36.035207 -119.067340 279 444ft 0kts
14-Apr-18 10:21 36.035207 -119.067340 279 444ft 0kts
14-Apr-18 10:22 36.035207 -119.067340 279 444ft 0kts
14-Apr-18 10:23 36.035207 -119.067340 279 444ft 0kts
14-Apr-18 10:24 36.035207 -119.067340 279 444ft 0kts
14-Apr-18 10:25 36.035207 -119.067340 279 444ft 0kts
14-Apr-18 10:26 36.035207 -119.067340 279 444ft 0kts
14-Apr-18 10:27 36.035207 -119.067340 279 444ft 0kts
14-Apr-18 10:28 36.035207 -119.067340 279 444ft 0kts
14-Apr-18 10:29 36.034048 -119.068327 140 444ft 38kts
14-Apr-18 10:30 36.011967 -119.052716 167 1184ft 113kts
14-Apr-18 10:31 35.979154 -119.043898 161 2248ft 119kts
14-Apr-18 10:32 35.944636 -119.030938 165 3020ft 129kts
14-Apr-18 10:33 35.910214 -119.019506 164 3920ft 126kts
14-Apr-18 10:34 35.876904 -119.007237 163 4721ft 123kts
14-Apr-18 10:35 35.843778 -118.995102 163 5438ft 126kts
14-Apr-18 10:36 35.809759 -118.982611 163 6094ft 127kts
14-Apr-18 10:37 35.775877 -118.970218 163 6725ft 126kts
14-Apr-18 10:38 35.741886 -118.957796 163 7275ft 128kts
14-Apr-18 10:39 35.707431 -118.945218 163 7838ft 128kts
14-Apr-18 10:40 35.673064 -118.932691 163 8382ft 128kts
14-Apr-18 10:41 35.638612 -118.920145 163 8909ft 128kts
14-Apr-18 10:42 35.601576 -118.906550 163 9005ft 152kts
14-Apr-18 10:43 35.559271 -118.891039 164 9008ft 164kts
14-Apr-18 10:44 35.514661 -118.874447 164 9007ft 169kts
14-Apr-18 10:45 35.469221 -118.857800 164 9007ft 171kts
14-Apr-18 10:46 35.423474 -118.841194 164 9007ft 172kts
14-Apr-18 10:47 35.377605 -118.824592 164 9007ft 172kts
14-Apr-18 10:48 35.331566 -118.807954 164 9007ft 172kts
14-Apr-18 10:49 35.285679 -118.791393 164 9007ft 172kts
14-Apr-18 10:50 35.239625 -118.774793 164 9007ft 172kts
14-Apr-18 10:51 35.193704 -118.758260 164 9007ft 172kts
14-Apr-18 10:52 35.147641 -118.741694 164 9007ft 172kts
14-Apr-18 10:53 35.101700 -118.725193 164 9007ft 172kts
14-Apr-18 10:54 35.055760 -118.708712 164 9007ft 172kts
14-Apr-18 10:55 35.009798 -118.692241 164 9007ft 172kts
14-Apr-18 10:56 34.963671 -118.675732 164 9007ft 172kts
14-Apr-18 10:57 34.917689 -118.659293 164 9007ft 172kts
14-Apr-18 10:58 34.871542 -118.642814 164 9007ft 172kts
14-Apr-18 10:59 34.825563 -118.626416 164 9007ft 172kts
14-Apr-18 11:00 34.779551 -118.610024 164 9007ft 172kts
14-Apr-18 11:01 34.733372 -118.593592 164 9007ft 172kts
14-Apr-18 11:02 34.687351 -118.577234 164 9007ft 172kts
14-Apr-18 11:03 34.644098 -118.552121 156 9007ft 172kts
14-Apr-18 11:04 34.600750 -118.527220 155 9007ft 172kts
14-Apr-18 11:05 34.557509 -118.501977 155 9007ft 172kts
14-Apr-18 11:06 34.514150 -118.476625 155 9007ft 172kts
14-Apr-18 11:07 34.470892 -118.451349 155 9007ft 172kts
14-Apr-18 11:08 34.427622 -118.426092 155 9007ft 172kts
14-Apr-18 11:09 34.384239 -118.400799 155 9007ft 172kts
14-Apr-18 11:10 34.340956 -118.375593 155 9007ft 172kts
14-Apr-18 11:11 34.297503 -118.350317 155 9007ft 172kts
14-Apr-18 11:12 34.251555 -118.323521 155 8275ft 195kts
14-Apr-18 11:13 34.202473 -118.294907 155 7349ft 194kts
14-Apr-18 11:14 34.157640 -118.260723 116 6369ft 194kts
14-Apr-18 11:15 34.137677 -118.201022 113 5462ft 190kts
14-Apr-18 11:16 34.118980 -118.143370 111 4989ft 174kts
14-Apr-18 11:17 34.103211 -118.092783 111 5005ft 152kts
14-Apr-18 11:18 34.088364 -118.044974 111 5013ft 157kts
14-Apr-18 11:19 34.072554 -117.993523 111 5009ft 168kts
14-Apr-18 11:20 34.056066 -117.939810 111 5008ft 170kts
14-Apr-18 11:21 34.039598 -117.886372 111 5008ft 170kts
14-Apr-18 11:22 34.023105 -117.832987 111 5008ft 169kts
14-Apr-18 11:23 33.997127 -117.789427 169 4765ft 172kts
14-Apr-18 11:24 33.947776 -117.784838 176 3980ft 178kts
14-Apr-18 11:25 33.900120 -117.782398 179 4007ft 167kts
14-Apr-18 11:26 33.856749 -117.791630 230 4007ft 163kts
14-Apr-18 11:27 33.818923 -117.804983 170 4011ft 160kts
14-Apr-18 11:28 33.774645 -117.795505 170 4008ft 161kts
14-Apr-18 11:29 33.730337 -117.786012 170 4008ft 162kts
14-Apr-18 11:30 33.685948 -117.776496 170 4008ft 162kts
14-Apr-18 11:31 33.666170 -117.744124 42 4008ft 158kts
14-Apr-18 11:32 33.693858 -117.772213 283 3317ft 174kts
14-Apr-18 11:33 33.704505 -117.828910 281 2916ft 165kts
14-Apr-18 11:34 33.678187 -117.865153 249 2917ft 144kts
14-Apr-18 11:35 33.703498 -117.880534 20 2915ft 137kts
14-Apr-18 11:36 33.739298 -117.864874 20 2917ft 136kts
14-Apr-18 11:37 33.775186 -117.845824 57 2936ft 145kts
14-Apr-18 11:38 33.751871 -117.827287 206 2486ft 149kts
14-Apr-18 11:39 33.715672 -117.845519 203 1269ft 137kts
14-Apr-18 11:40 33.687261 -117.861487 208 324ft 90kts
14-Apr-18 11:41 33.675670 -117.869474 283 58ft 0kts
14-Apr-18 11:42 33.675987 -117.870189 307 58ft 18kts

Navigation Log

Ident Type
Flight plan parsing failed, navigation log unavailable